sensor_id;sensor_type;location;lat;lon;timestamp;temperature;humidity
27697;DHT22;15105;56.514;21.002;2022-08-24T00:01:07;22.00;99.90
27697;DHT22;15105;56.514;21.002;2022-08-24T00:03:35;22.00;99.90
27697;DHT22;15105;56.514;21.002;2022-08-24T00:06:05;22.00;99.90
27697;DHT22;15105;56.514;21.002;2022-08-24T00:08:33;22.00;99.90
27697;DHT22;15105;56.514;21.002;2022-08-24T00:11:01;22.00;99.90
27697;DHT22;15105;56.514;21.002;2022-08-24T00:13:28;22.00;99.90
27697;DHT22;15105;56.514;21.002;2022-08-24T00:16:02;21.90;99.90
27697;DHT22;15105;56.514;21.002;2022-08-24T00:18:29;22.00;99.90
27697;DHT22;15105;56.514;21.002;2022-08-24T00:20:56;21.90;99.90
27697;DHT22;15105;56.514;21.002;2022-08-24T00:23:23;22.00;99.90
27697;DHT22;15105;56.514;21.002;2022-08-24T00:25:50;22.00;99.90
27697;DHT22;15105;56.514;21.002;2022-08-24T00:28:17;22.00;99.90
27697;DHT22;15105;56.514;21.002;2022-08-24T00:30:44;21.90;99.90
27697;DHT22;15105;56.514;21.002;2022-08-24T00:33:14;21.90;99.90
27697;DHT22;15105;56.514;21.002;2022-08-24T00:35:42;22.00;99.90
27697;DHT22;15105;56.514;21.002;2022-08-24T00:38:09;21.90;99.90
27697;DHT22;15105;56.514;21.002;2022-08-24T00:40:41;22.00;99.90
27697;DHT22;15105;56.514;21.002;2022-08-24T00:43:17;22.00;99.90
27697;DHT22;15105;56.514;21.002;2022-08-24T00:45:50;22.00;99.90
27697;DHT22;15105;56.514;21.002;2022-08-24T00:48:25;22.00;99.90
27697;DHT22;15105;56.514;21.002;2022-08-24T00:50:57;22.00;99.90
27697;DHT22;15105;56.514;21.002;2022-08-24T00:53:36;22.00;99.90
27697;DHT22;15105;56.514;21.002;2022-08-24T00:56:20;22.00;99.90
27697;DHT22;15105;56.514;21.002;2022-08-24T00:58:55;22.00;99.90
27697;DHT22;15105;56.514;21.002;2022-08-24T01:01:25;22.00;99.90
27697;DHT22;15105;56.514;21.002;2022-08-24T01:03:53;22.00;99.90
27697;DHT22;15105;56.514;21.002;2022-08-24T01:06:23;22.00;99.90
27697;DHT22;15105;56.514;21.002;2022-08-24T01:08:50;22.00;99.90
27697;DHT22;15105;56.514;21.002;2022-08-24T01:11:25;22.00;99.90
27697;DHT22;15105;56.514;21.002;2022-08-24T01:14:01;21.90;99.90
27697;DHT22;15105;56.514;21.002;2022-08-24T01:16:29;21.90;99.90
27697;DHT22;15105;56.514;21.002;2022-08-24T01:19:37;21.90;99.90
27697;DHT22;15105;56.514;21.002;2022-08-24T01:25:09;21.80;99.90
27697;DHT22;15105;56.514;21.002;2022-08-24T01:27:37;21.70;99.90
27697;DHT22;15105;56.514;21.002;2022-08-24T01:30:09;21.70;99.90
27697;DHT22;15105;56.514;21.002;2022-08-24T01:32:37;21.70;99.90
27697;DHT22;15105;56.514;21.002;2022-08-24T01:35:06;21.60;99.90
27697;DHT22;15105;56.514;21.002;2022-08-24T01:37:33;21.60;99.90
27697;DHT22;15105;56.514;21.002;2022-08-24T01:40:05;21.60;99.90
27697;DHT22;15105;56.514;21.002;2022-08-24T01:42:33;21.50;99.90
27697;DHT22;15105;56.514;21.002;2022-08-24T01:45:01;21.50;99.90
27697;DHT22;15105;56.514;21.002;2022-08-24T01:47:29;21.50;99.90
27697;DHT22;15105;56.514;21.002;2022-08-24T01:49:56;21.50;99.90
27697;DHT22;15105;56.514;21.002;2022-08-24T01:52:24;21.50;99.90
27697;DHT22;15105;56.514;21.002;2022-08-24T01:55:00;21.50;99.90
27697;DHT22;15105;56.514;21.002;2022-08-24T01:57:27;21.40;99.90
27697;DHT22;15105;56.514;21.002;2022-08-24T01:59:55;21.50;99.90
27697;DHT22;15105;56.514;21.002;2022-08-24T02:02:29;21.40;99.90
27697;DHT22;15105;56.514;21.002;2022-08-24T02:04:57;21.40;99.90
27697;DHT22;15105;56.514;21.002;2022-08-24T02:07:24;21.40;99.90
27697;DHT22;15105;56.514;21.002;2022-08-24T02:09:52;21.40;99.90
27697;DHT22;15105;56.514;21.002;2022-08-24T02:12:19;21.40;99.90
27697;DHT22;15105;56.514;21.002;2022-08-24T02:14:46;21.30;99.90
27697;DHT22;15105;56.514;21.002;2022-08-24T02:17:14;21.30;99.90
27697;DHT22;15105;56.514;21.002;2022-08-24T02:19:41;21.30;99.90
27697;DHT22;15105;56.514;21.002;2022-08-24T02:22:09;21.30;99.90
27697;DHT22;15105;56.514;21.002;2022-08-24T02:24:37;21.30;99.90
27697;DHT22;15105;56.514;21.002;2022-08-24T02:27:05;21.30;99.90
27697;DHT22;15105;56.514;21.002;2022-08-24T02:29:32;21.40;99.90
27697;DHT22;15105;56.514;21.002;2022-08-24T02:31:59;21.30;99.90
27697;DHT22;15105;56.514;21.002;2022-08-24T02:34:26;21.30;99.90
27697;DHT22;15105;56.514;21.002;2022-08-24T02:36:53;21.40;99.90
27697;DHT22;15105;56.514;21.002;2022-08-24T02:39:20;21.40;99.90
27697;DHT22;15105;56.514;21.002;2022-08-24T02:41:47;21.40;99.90
27697;DHT22;15105;56.514;21.002;2022-08-24T02:44:17;21.40;99.90
27697;DHT22;15105;56.514;21.002;2022-08-24T02:46:45;21.50;99.90
27697;DHT22;15105;56.514;21.002;2022-08-24T02:49:12;21.50;99.90
27697;DHT22;15105;56.514;21.002;2022-08-24T02:51:41;21.60;99.90
27697;DHT22;15105;56.514;21.002;2022-08-24T02:54:15;21.60;99.90
27697;DHT22;15105;56.514;21.002;2022-08-24T02:56:46;21.60;99.90
27697;DHT22;15105;56.514;21.002;2022-08-24T02:59:13;21.60;99.90
27697;DHT22;15105;56.514;21.002;2022-08-24T03:01:41;21.60;99.90
27697;DHT22;15105;56.514;21.002;2022-08-24T03:04:09;21.60;99.90
27697;DHT22;15105;56.514;21.002;2022-08-24T03:06:37;21.60;99.90
27697;DHT22;15105;56.514;21.002;2022-08-24T03:09:05;21.50;99.90
27697;DHT22;15105;56.514;21.002;2022-08-24T03:11:32;21.50;99.90
27697;DHT22;15105;56.514;21.002;2022-08-24T03:13:59;21.50;99.90
27697;DHT22;15105;56.514;21.002;2022-08-24T03:16:28;21.50;99.90
27697;DHT22;15105;56.514;21.002;2022-08-24T03:18:55;21.50;99.90
27697;DHT22;15105;56.514;21.002;2022-08-24T03:21:22;21.40;99.90
27697;DHT22;15105;56.514;21.002;2022-08-24T03:23:49;21.40;99.90
27697;DHT22;15105;56.514;21.002;2022-08-24T03:26:16;21.30;99.90
27697;DHT22;15105;56.514;21.002;2022-08-24T03:28:43;21.20;99.90
27697;DHT22;15105;56.514;21.002;2022-08-24T03:31:15;21.20;99.90
27697;DHT22;15105;56.514;21.002;2022-08-24T03:33:42;21.20;99.90
27697;DHT22;15105;56.514;21.002;2022-08-24T03:36:13;21.10;99.90
27697;DHT22;15105;56.514;21.002;2022-08-24T03:38:41;21.00;99.90
27697;DHT22;15105;56.514;21.002;2022-08-24T03:41:09;21.00;99.90
27697;DHT22;15105;56.514;21.002;2022-08-24T03:43:39;20.90;99.90
27697;DHT22;15105;56.514;21.002;2022-08-24T03:46:17;20.90;99.90
27697;DHT22;15105;56.514;21.002;2022-08-24T03:48:46;20.80;99.90
27697;DHT22;15105;56.514;21.002;2022-08-24T03:51:17;20.80;99.90
27697;DHT22;15105;56.514;21.002;2022-08-24T03:53:44;20.80;99.90
27697;DHT22;15105;56.514;21.002;2022-08-24T03:56:12;20.80;99.90
27697;DHT22;15105;56.514;21.002;2022-08-24T03:58:40;20.80;99.90
27697;DHT22;15105;56.514;21.002;2022-08-24T04:01:08;20.80;99.90
27697;DHT22;15105;56.514;21.002;2022-08-24T04:03:55;20.80;99.90
27697;DHT22;15105;56.514;21.002;2022-08-24T04:06:22;20.80;99.90
27697;DHT22;15105;56.514;21.002;2022-08-24T04:08:50;20.80;99.90
27697;DHT22;15105;56.514;21.002;2022-08-24T04:11:22;20.90;99.90
27697;DHT22;15105;56.514;21.002;2022-08-24T04:13:52;20.80;99.90
27697;DHT22;15105;56.514;21.002;2022-08-24T04:16:23;20.70;99.90
27697;DHT22;15105;56.514;21.002;2022-08-24T04:18:50;20.70;99.90
27697;DHT22;15105;56.514;21.002;2022-08-24T04:21:30;20.70;99.90
27697;DHT22;15105;56.514;21.002;2022-08-24T04:24:02;20.70;99.90
27697;DHT22;15105;56.514;21.002;2022-08-24T04:26:30;20.70;99.90
27697;DHT22;15105;56.514;21.002;2022-08-24T04:29:16;20.60;99.90
27697;DHT22;15105;56.514;21.002;2022-08-24T04:31:43;20.60;99.90
27697;DHT22;15105;56.514;21.002;2022-08-24T04:34:12;20.60;99.90
27697;DHT22;15105;56.514;21.002;2022-08-24T04:36:42;20.60;99.90
27697;DHT22;15105;56.514;21.002;2022-08-24T04:39:10;20.60;99.90
27697;DHT22;15105;56.514;21.002;2022-08-24T04:41:37;20.60;99.90
27697;DHT22;15105;56.514;21.002;2022-08-24T04:44:04;20.60;99.90
27697;DHT22;15105;56.514;21.002;2022-08-24T04:46:33;20.60;99.90
27697;DHT22;15105;56.514;21.002;2022-08-24T04:49:01;20.60;99.90
27697;DHT22;15105;56.514;21.002;2022-08-24T04:51:28;20.60;99.90
27697;DHT22;15105;56.514;21.002;2022-08-24T04:54:02;20.60;99.90
27697;DHT22;15105;56.514;21.002;2022-08-24T04:56:30;20.60;99.90
27697;DHT22;15105;56.514;21.002;2022-08-24T04:58:57;20.60;99.90
27697;DHT22;15105;56.514;21.002;2022-08-24T05:01:26;20.60;99.90
27697;DHT22;15105;56.514;21.002;2022-08-24T05:03:55;20.60;99.90
27697;DHT22;15105;56.514;21.002;2022-08-24T05:06:25;20.70;99.90
27697;DHT22;15105;56.514;21.002;2022-08-24T05:08:52;20.60;99.90
27697;DHT22;15105;56.514;21.002;2022-08-24T05:11:21;20.70;99.90
27697;DHT22;15105;56.514;21.002;2022-08-24T05:13:53;20.70;99.90
27697;DHT22;15105;56.514;21.002;2022-08-24T05:16:21;20.70;99.90
27697;DHT22;15105;56.514;21.002;2022-08-24T05:18:49;20.70;99.90
27697;DHT22;15105;56.514;21.002;2022-08-24T05:21:20;20.70;99.90
27697;DHT22;15105;56.514;21.002;2022-08-24T05:23:47;20.60;99.90
27697;DHT22;15105;56.514;21.002;2022-08-24T05:26:17;20.60;99.90
27697;DHT22;15105;56.514;21.002;2022-08-24T05:28:45;20.60;99.90
27697;DHT22;15105;56.514;21.002;2022-08-24T05:31:14;20.50;99.90
27697;DHT22;15105;56.514;21.002;2022-08-24T05:33:42;20.50;99.90
27697;DHT22;15105;56.514;21.002;2022-08-24T05:36:24;20.60;99.90
27697;DHT22;15105;56.514;21.002;2022-08-24T05:38:53;20.60;99.90
27697;DHT22;15105;56.514;21.002;2022-08-24T05:41:20;20.70;99.90
27697;DHT22;15105;56.514;21.002;2022-08-24T05:43:48;20.70;99.90
27697;DHT22;15105;56.514;21.002;2022-08-24T05:46:15;20.70;99.90
27697;DHT22;15105;56.514;21.002;2022-08-24T05:48:45;20.60;99.90
27697;DHT22;15105;56.514;21.002;2022-08-24T05:51:19;20.60;99.90
27697;DHT22;15105;56.514;21.002;2022-08-24T05:53:47;20.60;99.90
27697;DHT22;15105;56.514;21.002;2022-08-24T05:56:15;20.60;99.90
27697;DHT22;15105;56.514;21.002;2022-08-24T05:58:43;20.60;99.90
27697;DHT22;15105;56.514;21.002;2022-08-24T06:01:16;20.60;99.90
27697;DHT22;15105;56.514;21.002;2022-08-24T06:03:44;20.70;99.90
27697;DHT22;15105;56.514;21.002;2022-08-24T06:06:11;20.60;99.90
27697;DHT22;15105;56.514;21.002;2022-08-24T06:08:45;20.60;99.90
27697;DHT22;15105;56.514;21.002;2022-08-24T06:11:39;20.60;99.90
27697;DHT22;15105;56.514;21.002;2022-08-24T06:14:12;20.60;99.90
27697;DHT22;15105;56.514;21.002;2022-08-24T06:16:41;20.60;99.90
27697;DHT22;15105;56.514;21.002;2022-08-24T06:19:12;20.60;99.90
27697;DHT22;15105;56.514;21.002;2022-08-24T06:21:40;20.60;99.90
27697;DHT22;15105;56.514;21.002;2022-08-24T06:24:07;20.50;99.90
27697;DHT22;15105;56.514;21.002;2022-08-24T06:26:34;20.60;99.90
27697;DHT22;15105;56.514;21.002;2022-08-24T06:29:38;20.60;99.90
27697;DHT22;15105;56.514;21.002;2022-08-24T06:32:05;20.60;99.90
27697;DHT22;15105;56.514;21.002;2022-08-24T06:34:32;20.50;99.90
27697;DHT22;15105;56.514;21.002;2022-08-24T06:36:59;20.50;99.90
27697;DHT22;15105;56.514;21.002;2022-08-24T06:39:26;20.50;99.90
27697;DHT22;15105;56.514;21.002;2022-08-24T06:41:53;20.50;99.90
27697;DHT22;15105;56.514;21.002;2022-08-24T06:44:20;20.50;99.90
27697;DHT22;15105;56.514;21.002;2022-08-24T06:46:48;20.60;99.90
27697;DHT22;15105;56.514;21.002;2022-08-24T06:49:17;20.60;99.90
27697;DHT22;15105;56.514;21.002;2022-08-24T06:51:44;20.60;99.90
27697;DHT22;15105;56.514;21.002;2022-08-24T06:54:16;20.60;99.90
27697;DHT22;15105;56.514;21.002;2022-08-24T06:56:44;20.60;99.90
27697;DHT22;15105;56.514;21.002;2022-08-24T06:59:11;20.70;99.90
27697;DHT22;15105;56.514;21.002;2022-08-24T07:01:38;20.60;99.90
27697;DHT22;15105;56.514;21.002;2022-08-24T07:04:06;20.60;99.90
27697;DHT22;15105;56.514;21.002;2022-08-24T07:06:34;20.60;99.90
27697;DHT22;15105;56.514;21.002;2022-08-24T07:09:01;20.70;99.90
27697;DHT22;15105;56.514;21.002;2022-08-24T07:11:28;20.70;99.90
27697;DHT22;15105;56.514;21.002;2022-08-24T07:13:55;20.70;99.90
27697;DHT22;15105;56.514;21.002;2022-08-24T07:16:22;20.70;99.90
27697;DHT22;15105;56.514;21.002;2022-08-24T07:18:50;20.80;99.90
27697;DHT22;15105;56.514;21.002;2022-08-24T07:21:19;20.80;99.90
27697;DHT22;15105;56.514;21.002;2022-08-24T07:23:53;20.80;99.90
27697;DHT22;15105;56.514;21.002;2022-08-24T07:26:22;20.90;99.90
27697;DHT22;15105;56.514;21.002;2022-08-24T07:28:55;20.90;99.90
27697;DHT22;15105;56.514;21.002;2022-08-24T07:31:32;21.00;99.90
27697;DHT22;15105;56.514;21.002;2022-08-24T07:34:02;21.00;99.90
27697;DHT22;15105;56.514;21.002;2022-08-24T07:36:30;21.00;99.90
27697;DHT22;15105;56.514;21.002;2022-08-24T07:38:57;21.10;99.90
27697;DHT22;15105;56.514;21.002;2022-08-24T07:41:25;21.10;99.90
27697;DHT22;15105;56.514;21.002;2022-08-24T07:44:15;21.20;99.90
27697;DHT22;15105;56.514;21.002;2022-08-24T07:46:43;21.30;99.90
27697;DHT22;15105;56.514;21.002;2022-08-24T07:49:11;21.30;99.90
27697;DHT22;15105;56.514;21.002;2022-08-24T07:51:58;21.40;99.90
27697;DHT22;15105;56.514;21.002;2022-08-24T07:54:26;21.40;99.90
27697;DHT22;15105;56.514;21.002;2022-08-24T07:56:54;21.50;99.90
27697;DHT22;15105;56.514;21.002;2022-08-24T07:59:22;21.50;99.90
27697;DHT22;15105;56.514;21.002;2022-08-24T08:01:49;21.60;99.90
27697;DHT22;15105;56.514;21.002;2022-08-24T08:04:16;21.60;99.90
27697;DHT22;15105;56.514;21.002;2022-08-24T08:06:47;21.70;99.90
27697;DHT22;15105;56.514;21.002;2022-08-24T08:09:15;21.70;99.90
27697;DHT22;15105;56.514;21.002;2022-08-24T08:11:42;21.80;99.90
27697;DHT22;15105;56.514;21.002;2022-08-24T08:14:10;21.90;99.90
27697;DHT22;15105;56.514;21.002;2022-08-24T08:16:37;21.90;99.90
27697;DHT22;15105;56.514;21.002;2022-08-24T08:19:05;21.90;99.90
27697;DHT22;15105;56.514;21.002;2022-08-24T08:21:52;22.00;99.90
27697;DHT22;15105;56.514;21.002;2022-08-24T08:24:39;22.00;99.90
27697;DHT22;15105;56.514;21.002;2022-08-24T08:27:11;22.00;99.90
27697;DHT22;15105;56.514;21.002;2022-08-24T08:29:42;22.00;99.90
27697;DHT22;15105;56.514;21.002;2022-08-24T08:32:13;22.10;99.90
27697;DHT22;15105;56.514;21.002;2022-08-24T08:34:43;22.10;99.90
27697;DHT22;15105;56.514;21.002;2022-08-24T08:37:16;22.20;99.90
27697;DHT22;15105;56.514;21.002;2022-08-24T08:39:43;22.30;99.90
27697;DHT22;15105;56.514;21.002;2022-08-24T08:58:38;23.00;99.90
27697;DHT22;15105;56.514;21.002;2022-08-24T09:15:35;23.20;99.90
27697;DHT22;15105;56.514;21.002;2022-08-24T09:21:40;23.30;99.90
27697;DHT22;15105;56.514;21.002;2022-08-24T09:30:55;23.50;99.90
27697;DHT22;15105;56.514;21.002;2022-08-24T09:34:05;23.60;99.90
27697;DHT22;15105;56.514;21.002;2022-08-24T09:42:37;24.40;99.90
27697;DHT22;15105;56.514;21.002;2022-08-24T09:53:58;24.90;99.90
27697;DHT22;15105;56.514;21.002;2022-08-24T10:00:08;25.00;99.90
27697;DHT22;15105;56.514;21.002;2022-08-24T10:03:00;24.80;99.90
27697;DHT22;15105;56.514;21.002;2022-08-24T10:10:55;24.60;99.90
27697;DHT22;15105;56.514;21.002;2022-08-24T10:33:08;24.30;99.90
27697;DHT22;15105;56.514;21.002;2022-08-24T10:47:10;24.50;99.90
27697;DHT22;15105;56.514;21.002;2022-08-24T10:55:29;24.40;99.90
27697;DHT22;15105;56.514;21.002;2022-08-24T10:58:32;24.50;99.90
27697;DHT22;15105;56.514;21.002;2022-08-24T11:01:22;24.40;99.90
27697;DHT22;15105;56.514;21.002;2022-08-24T11:06:24;24.40;99.90
27697;DHT22;15105;56.514;21.002;2022-08-24T11:14:29;24.30;99.90
27697;DHT22;15105;56.514;21.002;2022-08-24T11:17:16;24.20;99.90
27697;DHT22;15105;56.514;21.002;2022-08-24T11:19:44;24.20;99.90
27697;DHT22;15105;56.514;21.002;2022-08-24T11:24:59;24.30;99.90
27697;DHT22;15105;56.514;21.002;2022-08-24T11:27:34;24.30;99.90
27697;DHT22;15105;56.514;21.002;2022-08-24T11:30:29;24.40;99.90
27697;DHT22;15105;56.514;21.002;2022-08-24T11:33:01;24.50;99.90
27697;DHT22;15105;56.514;21.002;2022-08-24T11:40:49;24.80;99.90
27697;DHT22;15105;56.514;21.002;2022-08-24T11:52:42;25.10;99.90
27697;DHT22;15105;56.514;21.002;2022-08-24T12:01:20;25.40;99.90
27697;DHT22;15105;56.514;21.002;2022-08-24T12:04:03;25.50;99.90
27697;DHT22;15105;56.514;21.002;2022-08-24T12:09:47;25.30;99.90
27697;DHT22;15105;56.514;21.002;2022-08-24T12:12:51;25.20;99.90
27697;DHT22;15105;56.514;21.002;2022-08-24T12:18:57;25.30;99.90
27697;DHT22;15105;56.514;21.002;2022-08-24T12:21:31;25.40;99.90
27697;DHT22;15105;56.514;21.002;2022-08-24T12:24:05;25.50;99.90
27697;DHT22;15105;56.514;21.002;2022-08-24T12:37:23;25.50;99.90
27697;DHT22;15105;56.514;21.002;2022-08-24T12:42:46;25.50;99.90
27697;DHT22;15105;56.514;21.002;2022-08-24T12:45:19;25.60;99.90
27697;DHT22;15105;56.514;21.002;2022-08-24T12:59:36;25.80;99.90
27697;DHT22;15105;56.514;21.002;2022-08-24T13:02:28;25.90;99.90
27697;DHT22;15105;56.514;21.002;2022-08-24T13:05:02;25.80;99.90
27697;DHT22;15105;56.514;21.002;2022-08-24T13:07:38;25.70;99.90
27697;DHT22;15105;56.514;21.002;2022-08-24T13:10:08;25.70;99.90
27697;DHT22;15105;56.514;21.002;2022-08-24T13:23:19;25.80;99.90
27697;DHT22;15105;56.514;21.002;2022-08-24T13:44:44;25.30;99.90
27697;DHT22;15105;56.514;21.002;2022-08-24T13:55:06;25.30;99.90
27697;DHT22;15105;56.514;21.002;2022-08-24T13:57:40;25.20;99.90
27697;DHT22;15105;56.514;21.002;2022-08-24T14:17:10;24.60;99.90
27697;DHT22;15105;56.514;21.002;2022-08-24T14:20:07;24.30;99.90
27697;DHT22;15105;56.514;21.002;2022-08-24T14:23:05;24.20;99.90
27697;DHT22;15105;56.514;21.002;2022-08-24T14:25:30;24.20;99.90
27697;DHT22;15105;56.514;21.002;2022-08-24T14:36:00;24.30;99.90
27697;DHT22;15105;56.514;21.002;2022-08-24T14:38:40;24.30;99.90
27697;DHT22;15105;56.514;21.002;2022-08-24T14:41:17;24.30;99.90
27697;DHT22;15105;56.514;21.002;2022-08-24T14:47:13;24.30;99.90
27697;DHT22;15105;56.514;21.002;2022-08-24T14:50:06;24.20;99.90
27697;DHT22;15105;56.514;21.002;2022-08-24T14:52:49;24.00;99.90
27697;DHT22;15105;56.514;21.002;2022-08-24T14:55:28;23.80;99.90
27697;DHT22;15105;56.514;21.002;2022-08-24T15:07:28;23.80;99.90
27697;DHT22;15105;56.514;21.002;2022-08-24T15:09:57;23.70;99.90
27697;DHT22;15105;56.514;21.002;2022-08-24T15:18:11;23.70;99.90
27697;DHT22;15105;56.514;21.002;2022-08-24T15:21:28;23.70;99.90
27697;DHT22;15105;56.514;21.002;2022-08-24T15:26:54;23.70;99.90
27697;DHT22;15105;56.514;21.002;2022-08-24T15:29:26;23.60;99.90
27697;DHT22;15105;56.514;21.002;2022-08-24T15:32:10;23.60;99.90
27697;DHT22;15105;56.514;21.002;2022-08-24T15:34:53;23.50;99.90
27697;DHT22;15105;56.514;21.002;2022-08-24T15:37:35;23.50;99.90
27697;DHT22;15105;56.514;21.002;2022-08-24T15:40:04;23.50;99.90
27697;DHT22;15105;56.514;21.002;2022-08-24T15:42:52;23.40;99.90
27697;DHT22;15105;56.514;21.002;2022-08-24T15:45:21;23.40;99.90
27697;DHT22;15105;56.514;21.002;2022-08-24T15:47:49;23.50;99.90
27697;DHT22;15105;56.514;21.002;2022-08-24T15:50:47;23.50;99.90
27697;DHT22;15105;56.514;21.002;2022-08-24T15:56:22;23.50;99.90
27697;DHT22;15105;56.514;21.002;2022-08-24T15:58:49;23.50;99.90
27697;DHT22;15105;56.514;21.002;2022-08-24T16:06:43;23.40;99.90
27697;DHT22;15105;56.514;21.002;2022-08-24T16:16:59;23.50;99.90
27697;DHT22;15105;56.514;21.002;2022-08-24T16:19:31;23.50;99.90
27697;DHT22;15105;56.514;21.002;2022-08-24T16:22:03;23.50;99.90
27697;DHT22;15105;56.514;21.002;2022-08-24T16:24:36;23.50;99.90
27697;DHT22;15105;56.514;21.002;2022-08-24T16:32:27;23.50;99.90
27697;DHT22;15105;56.514;21.002;2022-08-24T16:35:17;23.40;99.90
27697;DHT22;15105;56.514;21.002;2022-08-24T16:37:45;23.40;99.90
27697;DHT22;15105;56.514;21.002;2022-08-24T16:40:15;23.30;99.90
27697;DHT22;15105;56.514;21.002;2022-08-24T16:42:43;23.20;99.90
27697;DHT22;15105;56.514;21.002;2022-08-24T16:45:17;23.20;99.90
27697;DHT22;15105;56.514;21.002;2022-08-24T16:47:45;23.10;99.90
27697;DHT22;15105;56.514;21.002;2022-08-24T16:50:17;23.00;99.90
27697;DHT22;15105;56.514;21.002;2022-08-24T16:52:46;23.00;99.90
27697;DHT22;15105;56.514;21.002;2022-08-24T16:55:13;22.90;99.90
27697;DHT22;15105;56.514;21.002;2022-08-24T16:57:41;22.90;99.90
27697;DHT22;15105;56.514;21.002;2022-08-24T17:00:11;22.90;99.90
27697;DHT22;15105;56.514;21.002;2022-08-24T17:02:42;22.90;99.90
27697;DHT22;15105;56.514;21.002;2022-08-24T17:05:09;22.70;99.90
27697;DHT22;15105;56.514;21.002;2022-08-24T17:07:37;22.70;99.90
27697;DHT22;15105;56.514;21.002;2022-08-24T17:10:09;22.60;99.90
27697;DHT22;15105;56.514;21.002;2022-08-24T17:12:47;22.60;99.90
27697;DHT22;15105;56.514;21.002;2022-08-24T17:15:15;22.40;99.90
27697;DHT22;15105;56.514;21.002;2022-08-24T17:17:54;22.40;99.90
27697;DHT22;15105;56.514;21.002;2022-08-24T17:26:02;22.30;99.90
27697;DHT22;15105;56.514;21.002;2022-08-24T17:28:38;22.30;99.90
27697;DHT22;15105;56.514;21.002;2022-08-24T17:31:06;22.20;99.90
27697;DHT22;15105;56.514;21.002;2022-08-24T17:33:34;22.10;99.90
27697;DHT22;15105;56.514;21.002;2022-08-24T17:36:04;22.10;99.90
27697;DHT22;15105;56.514;21.002;2022-08-24T17:38:46;22.10;99.90
27697;DHT22;15105;56.514;21.002;2022-08-24T17:41:22;22.00;99.90
27697;DHT22;15105;56.514;21.002;2022-08-24T17:43:50;22.00;99.90
27697;DHT22;15105;56.514;21.002;2022-08-24T17:46:18;22.00;99.90
27697;DHT22;15105;56.514;21.002;2022-08-24T17:48:46;21.90;99.90
27697;DHT22;15105;56.514;21.002;2022-08-24T17:51:14;21.90;99.90
27697;DHT22;15105;56.514;21.002;2022-08-24T17:53:41;21.80;99.90
27697;DHT22;15105;56.514;21.002;2022-08-24T17:56:10;21.80;99.90
27697;DHT22;15105;56.514;21.002;2022-08-24T17:58:40;21.70;99.90
27697;DHT22;15105;56.514;21.002;2022-08-24T18:01:27;21.70;99.90
27697;DHT22;15105;56.514;21.002;2022-08-24T18:03:55;21.70;99.90
27697;DHT22;15105;56.514;21.002;2022-08-24T18:06:24;21.60;99.90
27697;DHT22;15105;56.514;21.002;2022-08-24T18:08:54;21.60;99.90
27697;DHT22;15105;56.514;21.002;2022-08-24T18:11:24;21.60;99.90
27697;DHT22;15105;56.514;21.002;2022-08-24T18:13:52;21.50;99.90
27697;DHT22;15105;56.514;21.002;2022-08-24T18:16:22;21.50;99.90
27697;DHT22;15105;56.514;21.002;2022-08-24T18:18:51;21.40;99.90
27697;DHT22;15105;56.514;21.002;2022-08-24T18:21:20;21.40;99.90
27697;DHT22;15105;56.514;21.002;2022-08-24T18:23:49;21.40;99.90
27697;DHT22;15105;56.514;21.002;2022-08-24T18:26:23;21.40;99.90
27697;DHT22;15105;56.514;21.002;2022-08-24T18:28:55;21.40;99.90
27697;DHT22;15105;56.514;21.002;2022-08-24T18:31:26;21.40;99.90
27697;DHT22;15105;56.514;21.002;2022-08-24T18:33:54;21.40;99.90
27697;DHT22;15105;56.514;21.002;2022-08-24T18:36:21;21.30;99.90
27697;DHT22;15105;56.514;21.002;2022-08-24T18:38:48;21.30;99.90
27697;DHT22;15105;56.514;21.002;2022-08-24T18:41:16;21.20;99.90
27697;DHT22;15105;56.514;21.002;2022-08-24T18:43:44;21.20;99.90
27697;DHT22;15105;56.514;21.002;2022-08-24T18:46:16;21.20;99.90
27697;DHT22;15105;56.514;21.002;2022-08-24T18:48:43;21.20;99.90
27697;DHT22;15105;56.514;21.002;2022-08-24T18:51:12;21.20;99.90
27697;DHT22;15105;56.514;21.002;2022-08-24T18:53:40;21.10;99.90
27697;DHT22;15105;56.514;21.002;2022-08-24T18:56:08;21.10;99.90
27697;DHT22;15105;56.514;21.002;2022-08-24T18:58:38;21.10;99.90
27697;DHT22;15105;56.514;21.002;2022-08-24T19:01:06;21.10;99.90
27697;DHT22;15105;56.514;21.002;2022-08-24T19:03:34;21.00;99.90
27697;DHT22;15105;56.514;21.002;2022-08-24T19:06:02;21.00;99.90
27697;DHT22;15105;56.514;21.002;2022-08-24T19:08:30;21.00;99.90
27697;DHT22;15105;56.514;21.002;2022-08-24T19:10:57;20.90;99.90
27697;DHT22;15105;56.514;21.002;2022-08-24T19:13:25;20.90;99.90
27697;DHT22;15105;56.514;21.002;2022-08-24T19:15:52;20.80;99.90
27697;DHT22;15105;56.514;21.002;2022-08-24T19:18:20;20.80;99.90
27697;DHT22;15105;56.514;21.002;2022-08-24T19:20:51;20.80;99.90
27697;DHT22;15105;56.514;21.002;2022-08-24T19:23:34;20.80;99.90
27697;DHT22;15105;56.514;21.002;2022-08-24T19:26:02;20.70;99.90
27697;DHT22;15105;56.514;21.002;2022-08-24T19:28:30;20.70;99.90
27697;DHT22;15105;56.514;21.002;2022-08-24T19:31:00;20.70;99.90
27697;DHT22;15105;56.514;21.002;2022-08-24T19:33:33;20.60;99.90
27697;DHT22;15105;56.514;21.002;2022-08-24T19:36:02;20.60;99.90
27697;DHT22;15105;56.514;21.002;2022-08-24T19:38:29;20.60;99.90
27697;DHT22;15105;56.514;21.002;2022-08-24T19:40:58;20.60;99.90
27697;DHT22;15105;56.514;21.002;2022-08-24T19:43:26;20.50;99.90
27697;DHT22;15105;56.514;21.002;2022-08-24T19:45:55;20.60;99.90
27697;DHT22;15105;56.514;21.002;2022-08-24T19:48:36;20.60;99.90
27697;DHT22;15105;56.514;21.002;2022-08-24T19:51:07;20.50;99.90
27697;DHT22;15105;56.514;21.002;2022-08-24T19:53:35;20.50;99.90
27697;DHT22;15105;56.514;21.002;2022-08-24T19:56:04;20.50;99.90
27697;DHT22;15105;56.514;21.002;2022-08-24T20:01:30;20.40;99.90
27697;DHT22;15105;56.514;21.002;2022-08-24T20:04:02;20.40;99.90
27697;DHT22;15105;56.514;21.002;2022-08-24T20:06:33;20.40;99.90
27697;DHT22;15105;56.514;21.002;2022-08-24T20:09:01;20.40;99.90
27697;DHT22;15105;56.514;21.002;2022-08-24T20:11:28;20.40;99.90
27697;DHT22;15105;56.514;21.002;2022-08-24T20:13:55;20.40;99.90
27697;DHT22;15105;56.514;21.002;2022-08-24T20:16:25;20.30;99.90
27697;DHT22;15105;56.514;21.002;2022-08-24T20:18:54;20.30;99.90
27697;DHT22;15105;56.514;21.002;2022-08-24T20:21:21;20.30;99.90
27697;DHT22;15105;56.514;21.002;2022-08-24T20:23:55;20.30;99.90